sensor_id;sensor_type;location;lat;lon;timestamp;P1;durP1;ratioP1;P2;durP2;ratioP2
3407;SDS011;1717;50.240;8.406;2022-08-05T00:02:17;4.93;;;4.53;;
3407;SDS011;1717;50.240;8.406;2022-08-05T00:04:44;5.30;;;4.57;;
3407;SDS011;1717;50.240;8.406;2022-08-05T00:07:12;5.97;;;5.17;;
3407;SDS011;1717;50.240;8.406;2022-08-05T00:09:39;8.80;;;5.20;;
3407;SDS011;1717;50.240;8.406;2022-08-05T00:12:06;14.60;;;4.90;;
3407;SDS011;1717;50.240;8.406;2022-08-05T00:14:33;6.97;;;4.90;;
3407;SDS011;1717;50.240;8.406;2022-08-05T00:17:00;5.50;;;4.67;;
3407;SDS011;1717;50.240;8.406;2022-08-05T00:19:27;7.30;;;4.60;;
3407;SDS011;1717;50.240;8.406;2022-08-05T00:21:54;7.80;;;5.70;;
3407;SDS011;1717;50.240;8.406;2022-08-05T00:24:22;9.70;;;5.00;;
3407;SDS011;1717;50.240;8.406;2022-08-05T00:26:49;10.00;;;5.63;;
3407;SDS011;1717;50.240;8.406;2022-08-05T00:29:16;10.13;;;6.00;;
3407;SDS011;1717;50.240;8.406;2022-08-05T00:31:43;10.57;;;6.07;;
3407;SDS011;1717;50.240;8.406;2022-08-05T00:34:09;12.90;;;7.43;;
3407;SDS011;1717;50.240;8.406;2022-08-05T00:36:36;11.93;;;6.53;;
3407;SDS011;1717;50.240;8.406;2022-08-05T00:39:03;7.57;;;6.20;;
3407;SDS011;1717;50.240;8.406;2022-08-05T00:41:32;8.53;;;6.10;;
3407;SDS011;1717;50.240;8.406;2022-08-05T00:44:00;13.93;;;7.47;;
3407;SDS011;1717;50.240;8.406;2022-08-05T00:46:27;10.83;;;7.27;;
3407;SDS011;1717;50.240;8.406;2022-08-05T00:48:54;15.73;;;8.10;;
3407;SDS011;1717;50.240;8.406;2022-08-05T00:51:21;12.53;;;7.40;;
3407;SDS011;1717;50.240;8.406;2022-08-05T00:53:48;11.80;;;8.03;;
3407;SDS011;1717;50.240;8.406;2022-08-05T00:56:15;13.57;;;8.87;;
3407;SDS011;1717;50.240;8.406;2022-08-05T00:58:44;11.23;;;7.63;;
3407;SDS011;1717;50.240;8.406;2022-08-05T01:01:11;16.57;;;8.40;;
3407;SDS011;1717;50.240;8.406;2022-08-05T01:03:39;10.23;;;7.03;;
3407;SDS011;1717;50.240;8.406;2022-08-05T01:06:07;10.90;;;7.40;;
3407;SDS011;1717;50.240;8.406;2022-08-05T01:08:34;11.43;;;7.60;;
3407;SDS011;1717;50.240;8.406;2022-08-05T01:11:02;7.47;;;6.10;;
3407;SDS011;1717;50.240;8.406;2022-08-05T01:13:35;13.03;;;6.63;;
3407;SDS011;1717;50.240;8.406;2022-08-05T01:16:09;9.10;;;6.97;;
3407;SDS011;1717;50.240;8.406;2022-08-05T01:18:39;8.37;;;5.40;;
3407;SDS011;1717;50.240;8.406;2022-08-05T01:21:14;8.70;;;6.00;;
3407;SDS011;1717;50.240;8.406;2022-08-05T01:23:54;5.80;;;5.00;;
3407;SDS011;1717;50.240;8.406;2022-08-05T01:26:34;7.40;;;5.07;;
3407;SDS011;1717;50.240;8.406;2022-08-05T01:29:12;4.70;;;4.20;;
3407;SDS011;1717;50.240;8.406;2022-08-05T01:31:47;5.23;;;4.73;;
3407;SDS011;1717;50.240;8.406;2022-08-05T01:34:17;5.00;;;4.50;;
3407;SDS011;1717;50.240;8.406;2022-08-05T01:36:50;5.90;;;5.20;;
3407;SDS011;1717;50.240;8.406;2022-08-05T01:39:19;4.13;;;3.73;;
3407;SDS011;1717;50.240;8.406;2022-08-05T01:41:47;4.67;;;4.00;;
3407;SDS011;1717;50.240;8.406;2022-08-05T01:44:18;5.37;;;4.47;;
3407;SDS011;1717;50.240;8.406;2022-08-05T01:46:46;6.33;;;5.37;;
3407;SDS011;1717;50.240;8.406;2022-08-05T01:49:14;5.20;;;4.17;;
3407;SDS011;1717;50.240;8.406;2022-08-05T01:51:44;4.47;;;4.07;;
3407;SDS011;1717;50.240;8.406;2022-08-05T01:54:12;3.73;;;3.43;;
3407;SDS011;1717;50.240;8.406;2022-08-05T01:56:42;5.43;;;4.27;;
3407;SDS011;1717;50.240;8.406;2022-08-05T01:59:11;3.90;;;3.43;;
3407;SDS011;1717;50.240;8.406;2022-08-05T02:01:43;5.43;;;3.87;;
3407;SDS011;1717;50.240;8.406;2022-08-05T02:04:13;4.20;;;3.90;;
3407;SDS011;1717;50.240;8.406;2022-08-05T02:06:43;3.93;;;3.20;;
3407;SDS011;1717;50.240;8.406;2022-08-05T02:09:10;5.17;;;4.30;;
3407;SDS011;1717;50.240;8.406;2022-08-05T02:11:39;4.10;;;3.80;;
3407;SDS011;1717;50.240;8.406;2022-08-05T02:14:14;4.10;;;3.30;;
3407;SDS011;1717;50.240;8.406;2022-08-05T02:16:47;5.20;;;3.70;;
3407;SDS011;1717;50.240;8.406;2022-08-05T02:19:19;3.27;;;3.07;;
3407;SDS011;1717;50.240;8.406;2022-08-05T02:21:56;4.33;;;3.93;;
3407;SDS011;1717;50.240;8.406;2022-08-05T02:24:31;4.30;;;3.90;;
3407;SDS011;1717;50.240;8.406;2022-08-05T02:27:02;4.70;;;4.30;;
3407;SDS011;1717;50.240;8.406;2022-08-05T02:29:33;4.43;;;4.07;;
3407;SDS011;1717;50.240;8.406;2022-08-05T02:32:03;4.07;;;3.67;;
3407;SDS011;1717;50.240;8.406;2022-08-05T02:34:33;5.20;;;3.43;;
3407;SDS011;1717;50.240;8.406;2022-08-05T02:37:02;5.47;;;4.10;;
3407;SDS011;1717;50.240;8.406;2022-08-05T02:39:33;4.60;;;4.20;;
3407;SDS011;1717;50.240;8.406;2022-08-05T02:42:03;3.90;;;3.60;;
3407;SDS011;1717;50.240;8.406;2022-08-05T02:44:32;4.80;;;4.40;;
3407;SDS011;1717;50.240;8.406;2022-08-05T02:47:02;4.53;;;4.10;;
3407;SDS011;1717;50.240;8.406;2022-08-05T02:49:34;4.73;;;4.20;;
3407;SDS011;1717;50.240;8.406;2022-08-05T02:52:02;5.73;;;4.97;;
3407;SDS011;1717;50.240;8.406;2022-08-05T02:54:32;6.27;;;4.63;;
3407;SDS011;1717;50.240;8.406;2022-08-05T02:56:59;4.47;;;4.07;;
3407;SDS011;1717;50.240;8.406;2022-08-05T02:59:27;5.00;;;4.50;;
3407;SDS011;1717;50.240;8.406;2022-08-05T03:01:55;4.07;;;3.77;;
3407;SDS011;1717;50.240;8.406;2022-08-05T03:04:26;7.00;;;4.80;;
3407;SDS011;1717;50.240;8.406;2022-08-05T03:06:54;4.90;;;4.47;;
3407;SDS011;1717;50.240;8.406;2022-08-05T03:09:23;6.40;;;4.10;;
3407;SDS011;1717;50.240;8.406;2022-08-05T03:11:50;4.70;;;4.10;;
3407;SDS011;1717;50.240;8.406;2022-08-05T03:14:17;4.27;;;3.97;;
3407;SDS011;1717;50.240;8.406;2022-08-05T03:16:44;6.00;;;4.20;;
3407;SDS011;1717;50.240;8.406;2022-08-05T03:19:11;4.37;;;4.07;;
3407;SDS011;1717;50.240;8.406;2022-08-05T03:21:39;7.43;;;4.10;;
3407;SDS011;1717;50.240;8.406;2022-08-05T03:24:06;5.30;;;4.80;;
3407;SDS011;1717;50.240;8.406;2022-08-05T03:26:34;6.60;;;6.03;;
3407;SDS011;1717;50.240;8.406;2022-08-05T03:29:02;5.50;;;5.10;;
3407;SDS011;1717;50.240;8.406;2022-08-05T03:34:03;5.17;;;4.77;;
3407;SDS011;1717;50.240;8.406;2022-08-05T03:36:30;6.10;;;5.50;;
3407;SDS011;1717;50.240;8.406;2022-08-05T03:39:04;6.33;;;5.30;;
3407;SDS011;1717;50.240;8.406;2022-08-05T03:41:32;4.70;;;4.40;;
3407;SDS011;1717;50.240;8.406;2022-08-05T03:43:59;4.60;;;3.90;;
3407;SDS011;1717;50.240;8.406;2022-08-05T03:46:26;5.30;;;4.80;;
3407;SDS011;1717;50.240;8.406;2022-08-05T03:48:53;5.13;;;4.60;;
3407;SDS011;1717;50.240;8.406;2022-08-05T03:51:20;5.63;;;5.03;;
3407;SDS011;1717;50.240;8.406;2022-08-05T03:53:54;4.97;;;4.57;;
3407;SDS011;1717;50.240;8.406;2022-08-05T03:56:27;4.90;;;4.40;;
3407;SDS011;1717;50.240;8.406;2022-08-05T03:58:58;6.00;;;5.50;;
3407;SDS011;1717;50.240;8.406;2022-08-05T04:01:27;4.90;;;4.50;;
3407;SDS011;1717;50.240;8.406;2022-08-05T04:03:56;6.33;;;5.40;;
3407;SDS011;1717;50.240;8.406;2022-08-05T04:06:24;5.13;;;4.73;;
3407;SDS011;1717;50.240;8.406;2022-08-05T04:08:52;5.50;;;4.90;;
3407;SDS011;1717;50.240;8.406;2022-08-05T04:11:20;7.80;;;5.60;;
3407;SDS011;1717;50.240;8.406;2022-08-05T04:13:48;6.00;;;5.40;;
3407;SDS011;1717;50.240;8.406;2022-08-05T04:16:15;5.37;;;4.90;;
3407;SDS011;1717;50.240;8.406;2022-08-05T04:18:43;7.90;;;5.50;;
3407;SDS011;1717;50.240;8.406;2022-08-05T04:21:11;8.30;;;5.27;;
3407;SDS011;1717;50.240;8.406;2022-08-05T04:23:38;6.00;;;5.50;;
3407;SDS011;1717;50.240;8.406;2022-08-05T04:26:05;6.47;;;5.87;;
3407;SDS011;1717;50.240;8.406;2022-08-05T04:28:32;7.10;;;5.33;;
3407;SDS011;1717;50.240;8.406;2022-08-05T04:31:00;6.17;;;5.57;;
3407;SDS011;1717;50.240;8.406;2022-08-05T04:33:27;6.10;;;5.60;;
3407;SDS011;1717;50.240;8.406;2022-08-05T04:35:54;6.10;;;5.60;;
3407;SDS011;1717;50.240;8.406;2022-08-05T04:38:21;7.73;;;6.40;;
3407;SDS011;1717;50.240;8.406;2022-08-05T04:40:49;6.20;;;5.70;;
3407;SDS011;1717;50.240;8.406;2022-08-05T04:43:16;6.30;;;5.43;;
3407;SDS011;1717;50.240;8.406;2022-08-05T04:45:43;8.10;;;7.30;;
3407;SDS011;1717;50.240;8.406;2022-08-05T04:48:11;8.00;;;7.20;;
3407;SDS011;1717;50.240;8.406;2022-08-05T04:50:40;11.33;;;8.40;;
3407;SDS011;1717;50.240;8.406;2022-08-05T04:53:08;9.30;;;8.00;;
3407;SDS011;1717;50.240;8.406;2022-08-05T04:55:36;8.67;;;7.90;;
3407;SDS011;1717;50.240;8.406;2022-08-05T04:58:04;9.00;;;8.13;;
3407;SDS011;1717;50.240;8.406;2022-08-05T05:00:31;9.83;;;8.77;;
3407;SDS011;1717;50.240;8.406;2022-08-05T05:02:58;8.13;;;7.40;;
3407;SDS011;1717;50.240;8.406;2022-08-05T05:05:27;8.03;;;7.30;;
3407;SDS011;1717;50.240;8.406;2022-08-05T05:07:55;9.43;;;8.53;;
3407;SDS011;1717;50.240;8.406;2022-08-05T05:10:25;9.77;;;8.97;;
3407;SDS011;1717;50.240;8.406;2022-08-05T05:12:52;11.83;;;8.77;;
3407;SDS011;1717;50.240;8.406;2022-08-05T05:15:18;11.47;;;9.47;;
3407;SDS011;1717;50.240;8.406;2022-08-05T05:17:45;12.17;;;10.93;;
3407;SDS011;1717;50.240;8.406;2022-08-05T05:20:12;12.60;;;10.50;;
3407;SDS011;1717;50.240;8.406;2022-08-05T05:22:41;12.60;;;10.63;;
3407;SDS011;1717;50.240;8.406;2022-08-05T05:25:08;10.73;;;9.63;;
3407;SDS011;1717;50.240;8.406;2022-08-05T05:27:36;13.23;;;10.40;;
3407;SDS011;1717;50.240;8.406;2022-08-05T05:30:03;10.77;;;9.83;;
3407;SDS011;1717;50.240;8.406;2022-08-05T05:32:31;11.00;;;9.90;;
3407;SDS011;1717;50.240;8.406;2022-08-05T05:34:58;10.33;;;9.10;;
3407;SDS011;1717;50.240;8.406;2022-08-05T05:37:25;11.67;;;10.57;;
3407;SDS011;1717;50.240;8.406;2022-08-05T05:39:53;11.10;;;9.80;;
3407;SDS011;1717;50.240;8.406;2022-08-05T05:42:20;10.53;;;9.63;;
3407;SDS011;1717;50.240;8.406;2022-08-05T05:44:47;10.20;;;9.20;;
3407;SDS011;1717;50.240;8.406;2022-08-05T05:47:14;9.27;;;8.37;;
3407;SDS011;1717;50.240;8.406;2022-08-05T05:49:41;12.20;;;9.10;;
3407;SDS011;1717;50.240;8.406;2022-08-05T05:52:08;10.37;;;8.70;;
3407;SDS011;1717;50.240;8.406;2022-08-05T05:54:35;10.57;;;8.90;;
3407;SDS011;1717;50.240;8.406;2022-08-05T05:57:03;9.50;;;8.53;;
3407;SDS011;1717;50.240;8.406;2022-08-05T05:59:30;10.00;;;8.90;;
3407;SDS011;1717;50.240;8.406;2022-08-05T06:01:57;9.23;;;8.33;;
3407;SDS011;1717;50.240;8.406;2022-08-05T06:04:24;11.93;;;8.97;;
3407;SDS011;1717;50.240;8.406;2022-08-05T06:06:50;8.40;;;7.70;;
3407;SDS011;1717;50.240;8.406;2022-08-05T06:09:18;8.27;;;7.57;;
3407;SDS011;1717;50.240;8.406;2022-08-05T06:11:44;7.90;;;7.30;;
3407;SDS011;1717;50.240;8.406;2022-08-05T06:14:13;8.33;;;7.17;;
3407;SDS011;1717;50.240;8.406;2022-08-05T06:16:40;6.90;;;5.63;;
3407;SDS011;1717;50.240;8.406;2022-08-05T06:19:06;6.63;;;5.90;;
3407;SDS011;1717;50.240;8.406;2022-08-05T06:21:34;6.23;;;5.63;;
3407;SDS011;1717;50.240;8.406;2022-08-05T06:24:02;8.70;;;5.73;;
3407;SDS011;1717;50.240;8.406;2022-08-05T06:26:29;6.93;;;6.23;;
3407;SDS011;1717;50.240;8.406;2022-08-05T06:28:56;5.50;;;5.00;;
3407;SDS011;1717;50.240;8.406;2022-08-05T06:31:24;7.43;;;5.30;;
3407;SDS011;1717;50.240;8.406;2022-08-05T06:33:51;6.87;;;4.87;;
3407;SDS011;1717;50.240;8.406;2022-08-05T06:36:18;6.40;;;5.23;;
3407;SDS011;1717;50.240;8.406;2022-08-05T06:38:44;4.93;;;4.50;;
3407;SDS011;1717;50.240;8.406;2022-08-05T06:41:11;5.33;;;4.83;;
3407;SDS011;1717;50.240;8.406;2022-08-05T06:43:38;4.27;;;3.93;;
3407;SDS011;1717;50.240;8.406;2022-08-05T06:46:05;5.23;;;4.73;;
3407;SDS011;1717;50.240;8.406;2022-08-05T06:48:34;5.10;;;4.60;;
3407;SDS011;1717;50.240;8.406;2022-08-05T06:51:02;5.77;;;4.90;;
3407;SDS011;1717;50.240;8.406;2022-08-05T06:53:29;5.77;;;5.17;;
3407;SDS011;1717;50.240;8.406;2022-08-05T06:55:57;5.40;;;5.00;;
3407;SDS011;1717;50.240;8.406;2022-08-05T06:58:27;4.90;;;3.97;;
3407;SDS011;1717;50.240;8.406;2022-08-05T07:00:56;4.97;;;4.57;;
3407;SDS011;1717;50.240;8.406;2022-08-05T07:03:23;5.13;;;4.77;;
3407;SDS011;1717;50.240;8.406;2022-08-05T07:05:52;5.33;;;4.83;;
3407;SDS011;1717;50.240;8.406;2022-08-05T07:08:19;4.77;;;4.20;;
3407;SDS011;1717;50.240;8.406;2022-08-05T07:10:47;5.00;;;4.57;;
3407;SDS011;1717;50.240;8.406;2022-08-05T07:13:13;4.87;;;4.33;;
3407;SDS011;1717;50.240;8.406;2022-08-05T07:15:58;4.20;;;3.80;;
3407;SDS011;1717;50.240;8.406;2022-08-05T07:18:42;5.00;;;4.60;;
3407;SDS011;1717;50.240;8.406;2022-08-05T07:21:10;6.03;;;4.77;;
3407;SDS011;1717;50.240;8.406;2022-08-05T07:23:37;5.17;;;4.73;;
3407;SDS011;1717;50.240;8.406;2022-08-05T07:26:05;6.13;;;4.63;;
3407;SDS011;1717;50.240;8.406;2022-08-05T07:28:31;4.80;;;4.40;;
3407;SDS011;1717;50.240;8.406;2022-08-05T07:30:58;4.20;;;3.90;;
3407;SDS011;1717;50.240;8.406;2022-08-05T07:33:25;4.50;;;4.10;;
3407;SDS011;1717;50.240;8.406;2022-08-05T07:35:52;4.83;;;4.43;;
3407;SDS011;1717;50.240;8.406;2022-08-05T07:38:21;5.50;;;4.70;;
3407;SDS011;1717;50.240;8.406;2022-08-05T07:40:48;4.83;;;4.43;;
3407;SDS011;1717;50.240;8.406;2022-08-05T07:43:14;5.20;;;4.70;;
3407;SDS011;1717;50.240;8.406;2022-08-05T07:45:42;4.73;;;4.33;;
3407;SDS011;1717;50.240;8.406;2022-08-05T07:48:09;4.30;;;4.00;;
3407;SDS011;1717;50.240;8.406;2022-08-05T07:50:37;4.50;;;4.10;;
3407;SDS011;1717;50.240;8.406;2022-08-05T07:53:03;5.00;;;4.50;;
3407;SDS011;1717;50.240;8.406;2022-08-05T07:55:32;5.73;;;4.37;;
3407;SDS011;1717;50.240;8.406;2022-08-05T07:58:00;4.90;;;4.20;;
3407;SDS011;1717;50.240;8.406;2022-08-05T08:00:27;5.20;;;4.80;;
3407;SDS011;1717;50.240;8.406;2022-08-05T08:02:54;5.37;;;4.87;;
3407;SDS011;1717;50.240;8.406;2022-08-05T08:05:21;5.73;;;5.23;;
3407;SDS011;1717;50.240;8.406;2022-08-05T08:07:48;6.23;;;5.07;;
3407;SDS011;1717;50.240;8.406;2022-08-05T08:10:15;6.40;;;5.30;;
3407;SDS011;1717;50.240;8.406;2022-08-05T08:12:43;5.60;;;5.07;;
3407;SDS011;1717;50.240;8.406;2022-08-05T08:15:10;5.80;;;5.30;;
3407;SDS011;1717;50.240;8.406;2022-08-05T08:17:38;7.57;;;5.53;;
3407;SDS011;1717;50.240;8.406;2022-08-05T08:20:05;5.53;;;5.03;;
3407;SDS011;1717;50.240;8.406;2022-08-05T08:22:32;10.50;;;5.83;;
3407;SDS011;1717;50.240;8.406;2022-08-05T08:24:59;6.63;;;5.33;;
3407;SDS011;1717;50.240;8.406;2022-08-05T08:27:26;5.70;;;5.20;;
3407;SDS011;1717;50.240;8.406;2022-08-05T08:29:56;5.40;;;4.90;;
3407;SDS011;1717;50.240;8.406;2022-08-05T08:32:23;5.77;;;5.27;;
3407;SDS011;1717;50.240;8.406;2022-08-05T08:34:50;6.70;;;4.47;;
3407;SDS011;1717;50.240;8.406;2022-08-05T08:37:17;5.00;;;4.60;;
3407;SDS011;1717;50.240;8.406;2022-08-05T08:39:43;5.17;;;4.77;;
3407;SDS011;1717;50.240;8.406;2022-08-05T08:42:11;5.80;;;5.20;;
3407;SDS011;1717;50.240;8.406;2022-08-05T08:44:39;6.03;;;5.10;;
3407;SDS011;1717;50.240;8.406;2022-08-05T08:47:09;5.50;;;5.00;;
3407;SDS011;1717;50.240;8.406;2022-08-05T08:49:37;5.90;;;5.40;;
3407;SDS011;1717;50.240;8.406;2022-08-05T08:52:09;4.87;;;4.47;;
3407;SDS011;1717;50.240;8.406;2022-08-05T08:54:38;4.87;;;4.50;;
3407;SDS011;1717;50.240;8.406;2022-08-05T08:57:05;5.30;;;4.80;;
3407;SDS011;1717;50.240;8.406;2022-08-05T08:59:33;4.87;;;4.53;;
3407;SDS011;1717;50.240;8.406;2022-08-05T09:02:01;4.97;;;4.50;;
3407;SDS011;1717;50.240;8.406;2022-08-05T09:04:33;4.73;;;4.10;;
3407;SDS011;1717;50.240;8.406;2022-08-05T09:07:02;6.27;;;4.40;;
3407;SDS011;1717;50.240;8.406;2022-08-05T09:09:31;4.63;;;4.23;;
3407;SDS011;1717;50.240;8.406;2022-08-05T09:11:59;4.00;;;3.60;;
3407;SDS011;1717;50.240;8.406;2022-08-05T09:14:26;4.60;;;3.87;;
3407;SDS011;1717;50.240;8.406;2022-08-05T09:16:53;4.67;;;4.27;;
3407;SDS011;1717;50.240;8.406;2022-08-05T09:19:20;5.80;;;4.20;;
3407;SDS011;1717;50.240;8.406;2022-08-05T09:21:48;7.60;;;4.00;;
3407;SDS011;1717;50.240;8.406;2022-08-05T09:24:16;6.93;;;4.20;;
3407;SDS011;1717;50.240;8.406;2022-08-05T09:26:45;4.77;;;4.37;;
3407;SDS011;1717;50.240;8.406;2022-08-05T09:29:12;4.77;;;4.37;;
3407;SDS011;1717;50.240;8.406;2022-08-05T09:31:42;7.10;;;4.10;;
3407;SDS011;1717;50.240;8.406;2022-08-05T09:34:09;4.93;;;4.53;;
3407;SDS011;1717;50.240;8.406;2022-08-05T09:36:41;5.70;;;4.07;;
3407;SDS011;1717;50.240;8.406;2022-08-05T09:39:11;5.23;;;4.83;;
3407;SDS011;1717;50.240;8.406;2022-08-05T09:41:55;5.30;;;4.70;;
3407;SDS011;1717;50.240;8.406;2022-08-05T09:44:32;5.30;;;4.80;;
3407;SDS011;1717;50.240;8.406;2022-08-05T09:47:05;4.70;;;4.30;;
3407;SDS011;1717;50.240;8.406;2022-08-05T09:49:34;4.73;;;4.33;;
3407;SDS011;1717;50.240;8.406;2022-08-05T09:52:15;4.70;;;4.30;;
3407;SDS011;1717;50.240;8.406;2022-08-05T09:54:51;5.70;;;4.63;;
3407;SDS011;1717;50.240;8.406;2022-08-05T09:57:33;4.73;;;4.33;;
3407;SDS011;1717;50.240;8.406;2022-08-05T10:00:05;4.67;;;4.30;;
3407;SDS011;1717;50.240;8.406;2022-08-05T10:02:36;4.93;;;4.53;;
3407;SDS011;1717;50.240;8.406;2022-08-05T10:05:14;5.63;;;5.13;;
3407;SDS011;1717;50.240;8.406;2022-08-05T10:07:49;4.80;;;4.40;;
3407;SDS011;1717;50.240;8.406;2022-08-05T10:10:19;4.80;;;4.40;;
3407;SDS011;1717;50.240;8.406;2022-08-05T10:12:48;5.40;;;4.90;;
3407;SDS011;1717;50.240;8.406;2022-08-05T10:15:23;5.30;;;4.90;;
3407;SDS011;1717;50.240;8.406;2022-08-05T10:18:05;5.83;;;5.00;;
3407;SDS011;1717;50.240;8.406;2022-08-05T10:20:38;5.80;;;5.33;;
3407;SDS011;1717;50.240;8.406;2022-08-05T10:23:07;5.87;;;5.33;;
3407;SDS011;1717;50.240;8.406;2022-08-05T10:25:37;5.70;;;5.20;;
3407;SDS011;1717;50.240;8.406;2022-08-05T10:28:04;5.43;;;4.90;;
3407;SDS011;1717;50.240;8.406;2022-08-05T10:30:31;5.60;;;4.87;;
3407;SDS011;1717;50.240;8.406;2022-08-05T10:32:58;5.50;;;5.00;;
3407;SDS011;1717;50.240;8.406;2022-08-05T10:35:26;5.27;;;4.87;;
3407;SDS011;1717;50.240;8.406;2022-08-05T10:37:53;5.53;;;5.13;;
3407;SDS011;1717;50.240;8.406;2022-08-05T10:40:23;4.97;;;4.50;;
3407;SDS011;1717;50.240;8.406;2022-08-05T10:43:00;6.53;;;5.83;;
3407;SDS011;1717;50.240;8.406;2022-08-05T10:45:33;5.57;;;4.93;;
3407;SDS011;1717;50.240;8.406;2022-08-05T10:51:02;6.70;;;6.20;;
3407;SDS011;1717;50.240;8.406;2022-08-05T10:53:36;6.13;;;5.67;;
3407;SDS011;1717;50.240;8.406;2022-08-05T10:56:05;6.33;;;5.70;;
3407;SDS011;1717;50.240;8.406;2022-08-05T10:58:35;6.27;;;5.77;;
3407;SDS011;1717;50.240;8.406;2022-08-05T11:01:12;6.30;;;5.30;;
3407;SDS011;1717;50.240;8.406;2022-08-05T11:06:24;6.07;;;5.60;;
3407;SDS011;1717;50.240;8.406;2022-08-05T11:11:45;7.13;;;6.43;;
3407;SDS011;1717;50.240;8.406;2022-08-05T11:14:22;6.50;;;5.90;;
3407;SDS011;1717;50.240;8.406;2022-08-05T11:19:58;5.87;;;5.37;;
3407;SDS011;1717;50.240;8.406;2022-08-05T11:22:39;6.33;;;5.83;;
3407;SDS011;1717;50.240;8.406;2022-08-05T11:25:27;6.90;;;5.70;;
3407;SDS011;1717;50.240;8.406;2022-08-05T11:33:51;7.57;;;6.87;;
3407;SDS011;1717;50.240;8.406;2022-08-05T11:36:21;8.40;;;7.23;;
3407;SDS011;1717;50.240;8.406;2022-08-05T11:39:10;10.00;;;9.00;;
3407;SDS011;1717;50.240;8.406;2022-08-05T11:41:39;8.43;;;7.73;;
3407;SDS011;1717;50.240;8.406;2022-08-05T11:44:07;10.00;;;9.10;;
3407;SDS011;1717;50.240;8.406;2022-08-05T11:46:38;9.33;;;8.43;;
3407;SDS011;1717;50.240;8.406;2022-08-05T11:49:07;9.70;;;8.70;;
3407;SDS011;1717;50.240;8.406;2022-08-05T11:51:38;10.50;;;9.43;;
3407;SDS011;1717;50.240;8.406;2022-08-05T11:54:07;9.03;;;8.30;;
3407;SDS011;1717;50.240;8.406;2022-08-05T11:56:45;10.13;;;9.33;;
3407;SDS011;1717;50.240;8.406;2022-08-05T11:59:16;9.70;;;8.90;;
3407;SDS011;1717;50.240;8.406;2022-08-05T12:01:58;11.43;;;10.33;;
3407;SDS011;1717;50.240;8.406;2022-08-05T12:04:35;11.50;;;10.60;;
3407;SDS011;1717;50.240;8.406;2022-08-05T12:07:04;12.77;;;11.57;;
3407;SDS011;1717;50.240;8.406;2022-08-05T12:09:34;13.20;;;12.10;;
3407;SDS011;1717;50.240;8.406;2022-08-05T12:12:03;12.90;;;11.80;;
3407;SDS011;1717;50.240;8.406;2022-08-05T12:14:37;14.07;;;12.87;;
3407;SDS011;1717;50.240;8.406;2022-08-05T12:17:07;14.07;;;12.77;;
3407;SDS011;1717;50.240;8.406;2022-08-05T12:19:42;12.53;;;11.43;;
3407;SDS011;1717;50.240;8.406;2022-08-05T12:22:10;13.73;;;11.67;;
3407;SDS011;1717;50.240;8.406;2022-08-05T12:24:41;12.47;;;11.47;;
3407;SDS011;1717;50.240;8.406;2022-08-05T12:27:09;11.57;;;10.50;;
3407;SDS011;1717;50.240;8.406;2022-08-05T12:29:43;11.70;;;10.70;;
3407;SDS011;1717;50.240;8.406;2022-08-05T12:32:12;10.27;;;9.33;;
3407;SDS011;1717;50.240;8.406;2022-08-05T12:34:39;9.93;;;9.03;;
3407;SDS011;1717;50.240;8.406;2022-08-05T12:37:08;10.53;;;9.63;;
3407;SDS011;1717;50.240;8.406;2022-08-05T12:39:36;10.47;;;9.57;;
3407;SDS011;1717;50.240;8.406;2022-08-05T12:42:07;10.97;;;9.93;;
3407;SDS011;1717;50.240;8.406;2022-08-05T12:44:35;10.37;;;9.47;;
3407;SDS011;1717;50.240;8.406;2022-08-05T12:47:03;10.10;;;9.30;;
3407;SDS011;1717;50.240;8.406;2022-08-05T12:49:44;10.03;;;9.27;;
3407;SDS011;1717;50.240;8.406;2022-08-05T12:52:13;10.10;;;9.07;;
3407;SDS011;1717;50.240;8.406;2022-08-05T12:54:41;11.47;;;9.67;;
3407;SDS011;1717;50.240;8.406;2022-08-05T12:57:10;9.47;;;8.57;;
3407;SDS011;1717;50.240;8.406;2022-08-05T12:59:45;10.40;;;9.50;;
3407;SDS011;1717;50.240;8.406;2022-08-05T13:02:14;10.10;;;9.20;;
3407;SDS011;1717;50.240;8.406;2022-08-05T13:04:45;10.10;;;9.10;;
3407;SDS011;1717;50.240;8.406;2022-08-05T13:07:14;9.87;;;9.07;;
3407;SDS011;1717;50.240;8.406;2022-08-05T13:09:46;9.63;;;8.73;;
3407;SDS011;1717;50.240;8.406;2022-08-05T13:12:15;10.10;;;9.27;;
3407;SDS011;1717;50.240;8.406;2022-08-05T13:14:44;11.77;;;9.00;;
3407;SDS011;1717;50.240;8.406;2022-08-05T13:17:16;10.40;;;9.40;;
3407;SDS011;1717;50.240;8.406;2022-08-05T13:20:00;9.70;;;8.70;;
3407;SDS011;1717;50.240;8.406;2022-08-05T13:22:30;9.90;;;8.93;;
3407;SDS011;1717;50.240;8.406;2022-08-05T13:25:00;11.57;;;10.47;;
3407;SDS011;1717;50.240;8.406;2022-08-05T13:27:28;10.03;;;9.13;;
3407;SDS011;1717;50.240;8.406;2022-08-05T13:29:56;10.67;;;9.57;;
3407;SDS011;1717;50.240;8.406;2022-08-05T13:32:24;10.50;;;9.50;;
3407;SDS011;1717;50.240;8.406;2022-08-05T13:34:52;12.87;;;11.57;;
3407;SDS011;1717;50.240;8.406;2022-08-05T13:37:21;13.93;;;12.13;;
3407;SDS011;1717;50.240;8.406;2022-08-05T13:39:49;14.10;;;12.70;;
3407;SDS011;1717;50.240;8.406;2022-08-05T13:42:18;14.17;;;12.83;;
3407;SDS011;1717;50.240;8.406;2022-08-05T13:44:45;17.43;;;15.73;;
3407;SDS011;1717;50.240;8.406;2022-08-05T13:47:13;14.07;;;12.77;;
3407;SDS011;1717;50.240;8.406;2022-08-05T13:49:40;14.73;;;13.27;;
3407;SDS011;1717;50.240;8.406;2022-08-05T13:52:10;15.97;;;14.43;;
3407;SDS011;1717;50.240;8.406;2022-08-05T13:54:39;15.00;;;13.50;;
3407;SDS011;1717;50.240;8.406;2022-08-05T13:57:07;16.00;;;14.40;;
3407;SDS011;1717;50.240;8.406;2022-08-05T13:59:34;15.53;;;13.93;;
3407;SDS011;1717;50.240;8.406;2022-08-05T14:02:03;16.17;;;14.57;;
3407;SDS011;1717;50.240;8.406;2022-08-05T14:04:32;16.57;;;14.87;;
3407;SDS011;1717;50.240;8.406;2022-08-05T14:07:18;15.60;;;14.10;;
3407;SDS011;1717;50.240;8.406;2022-08-05T14:09:47;16.53;;;14.90;;
3407;SDS011;1717;50.240;8.406;2022-08-05T14:12:14;16.40;;;14.90;;
3407;SDS011;1717;50.240;8.406;2022-08-05T14:14:41;16.90;;;15.20;;
3407;SDS011;1717;50.240;8.406;2022-08-05T14:17:08;16.20;;;14.67;;
3407;SDS011;1717;50.240;8.406;2022-08-05T14:19:35;18.50;;;16.63;;
3407;SDS011;1717;50.240;8.406;2022-08-05T14:22:02;20.23;;;18.20;;
3407;SDS011;1717;50.240;8.406;2022-08-05T14:24:29;17.53;;;15.80;;
3407;SDS011;1717;50.240;8.406;2022-08-05T14:26:58;17.37;;;15.67;;
3407;SDS011;1717;50.240;8.406;2022-08-05T14:29:25;18.53;;;16.70;;
3407;SDS011;1717;50.240;8.406;2022-08-05T14:31:52;18.20;;;16.50;;
3407;SDS011;1717;50.240;8.406;2022-08-05T14:34:18;17.07;;;15.47;;
3407;SDS011;1717;50.240;8.406;2022-08-05T14:36:45;16.97;;;15.23;;
3407;SDS011;1717;50.240;8.406;2022-08-05T14:39:13;18.57;;;16.77;;
3407;SDS011;1717;50.240;8.406;2022-08-05T14:41:40;15.70;;;14.30;;
3407;SDS011;1717;50.240;8.406;2022-08-05T14:44:08;16.67;;;14.90;;
3407;SDS011;1717;50.240;8.406;2022-08-05T14:46:35;14.87;;;13.37;;
3407;SDS011;1717;50.240;8.406;2022-08-05T14:49:03;14.50;;;12.97;;
3407;SDS011;1717;50.240;8.406;2022-08-05T14:51:30;14.53;;;13.13;;
3407;SDS011;1717;50.240;8.406;2022-08-05T14:53:57;14.07;;;12.70;;
3407;SDS011;1717;50.240;8.406;2022-08-05T14:56:25;12.80;;;11.50;;
3407;SDS011;1717;50.240;8.406;2022-08-05T14:58:52;12.73;;;11.53;;
3407;SDS011;1717;50.240;8.406;2022-08-05T15:01:20;11.53;;;10.40;;
3407;SDS011;1717;50.240;8.406;2022-08-05T15:03:47;11.00;;;9.97;;
3407;SDS011;1717;50.240;8.406;2022-08-05T15:06:14;10.00;;;9.00;;
3407;SDS011;1717;50.240;8.406;2022-08-05T15:08:42;11.07;;;9.97;;
3407;SDS011;1717;50.240;8.406;2022-08-05T15:11:09;11.07;;;9.30;;
3407;SDS011;1717;50.240;8.406;2022-08-05T15:13:36;8.40;;;7.60;;
3407;SDS011;1717;50.240;8.406;2022-08-05T15:16:03;8.57;;;7.77;;
3407;SDS011;1717;50.240;8.406;2022-08-05T15:18:32;9.07;;;8.17;;
3407;SDS011;1717;50.240;8.406;2022-08-05T15:20:59;9.23;;;7.70;;
3407;SDS011;1717;50.240;8.406;2022-08-05T15:23:27;7.10;;;6.40;;
3407;SDS011;1717;50.240;8.406;2022-08-05T15:25:54;6.90;;;6.27;;
3407;SDS011;1717;50.240;8.406;2022-08-05T15:28:21;5.97;;;5.40;;
3407;SDS011;1717;50.240;8.406;2022-08-05T15:30:48;5.93;;;5.07;;
3407;SDS011;1717;50.240;8.406;2022-08-05T15:33:16;4.23;;;3.90;;
3407;SDS011;1717;50.240;8.406;2022-08-05T15:35:44;3.50;;;2.93;;
3407;SDS011;1717;50.240;8.406;2022-08-05T15:38:11;3.80;;;3.13;;
3407;SDS011;1717;50.240;8.406;2022-08-05T15:40:38;3.10;;;2.53;;
3407;SDS011;1717;50.240;8.406;2022-08-05T15:43:05;2.70;;;2.50;;